createdAt,value
2023-04-08T00:00:35.224Z,5.80
2023-04-08T00:01:36.705Z,5.80
2023-04-08T00:02:19.880Z,5.80
2023-04-08T00:02:40.873Z,5.80
2023-04-08T00:03:23.170Z,5.80
2023-04-08T00:03:55.207Z,5.80
2023-04-08T00:04:35.425Z,5.80
2023-04-08T00:05:15.918Z,5.80
2023-04-08T00:05:37.474Z,5.80
2023-04-08T00:06:03.034Z,5.80
2023-04-08T00:06:35.112Z,5.80
2023-04-08T00:07:35.062Z,5.80
2023-04-08T00:08:34.706Z,5.80
2023-04-08T00:09:00.491Z,5.80
2023-04-08T00:09:36.660Z,5.80
2023-04-08T00:10:35.431Z,5.80
2023-04-08T00:11:23.017Z,5.63
2023-04-08T00:11:55.030Z,5.63
2023-04-08T00:12:27.988Z,5.63
2023-04-08T00:13:31.013Z,5.63
2023-04-08T00:14:03.050Z,5.63
2023-04-08T00:14:40.723Z,5.63
2023-04-08T00:15:07.480Z,5.63
2023-04-08T00:15:35.672Z,5.63
2023-04-08T00:16:34.747Z,5.63
2023-04-08T00:17:36.684Z,5.63
2023-04-08T00:18:35.944Z,5.63
2023-04-08T00:19:36.192Z,5.63
2023-04-08T00:20:11.359Z,5.63
2023-04-08T00:20:35.395Z,5.63
2023-04-08T00:21:15.656Z,5.63
2023-04-08T00:21:36.676Z,5.63
2023-04-08T00:22:03.709Z,5.63
2023-04-08T00:22:35.130Z,5.63
2023-04-08T00:23:35.266Z,5.63
2023-04-08T00:24:27.049Z,5.63
2023-04-08T00:24:59.057Z,5.63
2023-04-08T00:25:38.442Z,5.63
2023-04-08T00:26:03.067Z,5.63
2023-04-08T00:26:40.750Z,5.63
2023-04-08T00:27:07.063Z,5.63
2023-04-08T00:27:34.672Z,5.63
2023-04-08T00:27:55.012Z,5.63
2023-04-08T00:28:34.679Z,5.63
2023-04-08T00:29:36.935Z,5.63
2023-04-08T00:30:41.308Z,5.63
2023-04-08T00:31:34.679Z,5.63
2023-04-08T00:32:27.811Z,5.74
2023-04-08T00:33:15.711Z,5.74
2023-04-08T00:33:36.690Z,5.74
2023-04-08T00:34:40.745Z,5.74
2023-04-08T00:35:35.848Z,5.74
2023-04-08T00:36:34.666Z,5.74
2023-04-08T00:37:36.671Z,5.74
2023-04-08T00:38:03.042Z,5.74
2023-04-08T00:38:41.395Z,5.74
2023-04-08T00:39:35.630Z,5.74
2023-04-08T00:40:35.785Z,5.74
2023-04-08T00:41:17.188Z,5.74
2023-04-08T00:41:37.106Z,5.74
2023-04-08T00:42:42.658Z,5.74
2023-04-08T00:43:34.998Z,5.74
2023-04-08T00:43:55.060Z,5.74
2023-04-08T00:44:35.393Z,5.74
2023-04-08T00:45:01.758Z,5.63
2023-04-08T00:45:36.954Z,5.63
2023-04-08T00:46:40.955Z,5.63
2023-04-08T00:47:34.848Z,5.63
2023-04-08T00:48:35.846Z,5.63
2023-04-08T00:49:36.910Z,5.63
2023-04-08T00:50:03.692Z,5.74
2023-04-08T00:50:41.093Z,5.63
2023-04-08T00:51:35.741Z,5.63
2023-04-08T00:52:28.773Z,5.63
2023-04-08T00:52:59.096Z,5.63
2023-04-08T00:53:36.700Z,5.63
2023-04-08T00:54:40.784Z,5.63
2023-04-08T00:55:36.637Z,5.63
2023-04-08T00:55:55.110Z,5.63
2023-04-08T00:56:34.697Z,5.63
2023-04-08T00:57:15.699Z,5.63
2023-04-08T00:57:36.706Z,5.63
2023-04-08T00:58:19.064Z,5.63
2023-04-08T00:58:41.440Z,5.63
2023-04-08T00:59:35.480Z,5.63
2023-04-08T01:00:29.202Z,5.63
2023-04-08T01:00:59.117Z,5.63
2023-04-08T01:01:31.158Z,5.63
2023-04-08T01:02:37.635Z,5.63
2023-04-08T01:02:42.739Z,5.63
2023-04-08T01:03:07.241Z,5.63
2023-04-08T01:03:34.814Z,5.63
2023-04-08T01:03:55.835Z,5.63
2023-04-08T01:04:27.150Z,5.63
2023-04-08T01:04:59.120Z,5.63
2023-04-08T01:05:31.366Z,5.63
2023-04-08T01:06:04.027Z,5.63
2023-04-08T01:06:35.198Z,5.51
2023-04-08T01:07:07.089Z,5.51
2023-04-08T01:07:35.492Z,5.51
2023-04-08T01:08:27.060Z,5.51
2023-04-08T01:09:16.672Z,5.51
2023-04-08T01:09:36.693Z,5.51
2023-04-08T01:10:19.385Z,5.51
2023-04-08T01:10:40.872Z,5.51
2023-04-08T01:11:07.032Z,5.51
2023-04-08T01:11:34.718Z,5.51
2023-04-08T01:12:27.912Z,5.51
2023-04-08T01:12:59.472Z,5.51
2023-04-08T01:13:31.154Z,5.51
2023-04-08T01:14:03.114Z,5.51
2023-04-08T01:14:35.153Z,5.51
2023-04-08T01:15:23.592Z,5.51
2023-04-08T01:16:30.210Z,5.51
2023-04-08T01:16:35.284Z,5.51
2023-04-08T01:17:36.766Z,5.51
2023-04-08T01:18:19.099Z,5.51
2023-04-08T01:18:41.390Z,5.51
2023-04-08T01:19:07.049Z,5.51
2023-04-08T01:19:34.733Z,5.51
2023-04-08T01:19:55.077Z,5.51
2023-04-08T01:20:27.403Z,5.41
2023-04-08T01:20:59.106Z,5.41
2023-04-08T01:21:36.692Z,5.41
2023-04-08T01:22:03.833Z,5.41
2023-04-08T01:22:40.749Z,5.41
2023-04-08T01:23:07.704Z,5.51
2023-04-08T01:23:35.201Z,5.51
2023-04-08T01:23:55.087Z,5.51
2023-04-08T01:24:34.688Z,5.51
2023-04-08T01:24:59.055Z,5.51
2023-04-08T01:25:37.123Z,5.41
2023-04-08T01:26:19.045Z,5.41
2023-04-08T01:26:40.753Z,5.41
2023-04-08T01:27:07.490Z,5.41
2023-04-08T01:27:34.690Z,5.41
2023-04-08T01:27:55.060Z,5.41
2023-04-08T01:29:01.301Z,5.41
2023-04-08T01:29:15.631Z,5.41
2023-04-08T01:29:36.691Z,5.41
2023-04-08T01:30:04.216Z,5.41
2023-04-08T01:30:40.796Z,5.41
2023-04-08T01:31:07.141Z,5.41
2023-04-08T01:31:34.800Z,5.41
2023-04-08T01:31:55.885Z,5.41
2023-04-08T01:32:34.730Z,5.41
2023-04-08T01:33:36.678Z,5.36
2023-04-08T01:34:03.372Z,5.36
2023-04-08T01:34:40.754Z,5.36
2023-04-08T01:35:24.185Z,5.36
2023-04-08T01:36:30.614Z,5.36
2023-04-08T01:36:34.690Z,5.36
2023-04-08T01:36:59.029Z,5.36
2023-04-08T01:37:36.691Z,5.36
2023-04-08T01:38:19.051Z,5.52
2023-04-08T01:38:40.748Z,5.52
2023-04-08T01:39:23.078Z,5.52
2023-04-08T01:39:55.037Z,5.52
2023-04-08T01:40:35.040Z,5.52
2023-04-08T01:41:15.809Z,5.52
2023-04-08T01:41:37.495Z,5.52
2023-04-08T01:42:03.080Z,5.52
2023-04-08T01:42:35.102Z,5.52
2023-04-08T01:43:35.208Z,5.52
2023-04-08T01:44:27.410Z,5.52
2023-04-08T01:45:01.170Z,5.41
2023-04-08T01:45:31.283Z,5.41
2023-04-08T01:46:03.312Z,5.41
2023-04-08T01:46:35.185Z,5.41
2023-04-08T01:47:07.206Z,5.41
2023-04-08T01:47:34.720Z,5.41
2023-04-08T01:47:55.573Z,5.41
2023-04-08T01:48:27.073Z,5.41
2023-04-08T01:48:59.013Z,5.41
2023-04-08T01:49:31.062Z,5.41
2023-04-08T01:50:03.637Z,5.41
2023-04-08T01:50:35.073Z,5.41
2023-04-08T01:51:07.060Z,5.41
2023-04-08T01:51:35.253Z,5.41
2023-04-08T01:51:55.056Z,5.41
2023-04-08T01:52:27.069Z,5.41
2023-04-08T01:52:59.113Z,5.41
2023-04-08T01:53:31.078Z,5.41
2023-04-08T01:54:03.108Z,5.41
2023-04-08T01:54:36.172Z,5.41
2023-04-08T01:55:07.376Z,5.41
2023-04-08T01:55:34.699Z,5.41
2023-04-08T01:55:55.315Z,5.41
2023-04-08T01:56:27.085Z,5.41
2023-04-08T01:56:59.060Z,5.41
2023-04-08T01:57:31.083Z,5.41
2023-04-08T01:58:19.362Z,5.41
2023-04-08T01:58:40.754Z,5.41
2023-04-08T01:59:07.045Z,5.41
2023-04-08T01:59:35.206Z,5.41
2023-04-08T01:59:55.083Z,5.41
2023-04-08T02:00:27.617Z,5.30
2023-04-08T02:01:00.735Z,5.30
2023-04-08T02:01:31.205Z,5.30
2023-04-08T02:02:03.216Z,5.30
2023-04-08T02:02:35.676Z,5.30
2023-04-08T02:03:07.280Z,5.30
2023-04-08T02:03:34.838Z,5.30
2023-04-08T02:03:55.165Z,5.30
2023-04-08T02:04:27.314Z,5.30
2023-04-08T02:04:59.047Z,5.30
2023-04-08T02:05:31.453Z,5.18
2023-04-08T02:06:03.146Z,5.18
2023-04-08T02:06:35.121Z,5.18
2023-04-08T02:07:07.065Z,5.18
2023-04-08T02:07:34.696Z,5.18
2023-04-08T02:07:55.522Z,5.18
2023-04-08T02:08:27.091Z,5.33
2023-04-08T02:08:59.043Z,5.33
2023-04-08T02:09:31.318Z,5.33
2023-04-08T02:10:06.315Z,5.33
2023-04-08T02:10:36.682Z,5.33
2023-04-08T02:11:07.055Z,5.33
2023-04-08T02:11:34.716Z,5.33
2023-04-08T02:11:55.062Z,5.33
2023-04-08T02:12:27.057Z,5.33
2023-04-08T02:12:59.024Z,5.23
2023-04-08T02:13:31.192Z,5.23
2023-04-08T02:14:03.058Z,5.23
2023-04-08T02:14:36.053Z,5.23
2023-04-08T02:15:12.776Z,5.23
2023-04-08T02:15:35.055Z,5.23
2023-04-08T02:15:55.398Z,5.23
2023-04-08T02:16:27.098Z,5.23
2023-04-08T02:17:00.538Z,5.23
2023-04-08T02:17:31.198Z,5.23
2023-04-08T02:18:03.140Z,5.23
2023-04-08T02:18:35.111Z,5.23
2023-04-08T02:19:07.100Z,5.23
2023-04-08T02:19:35.672Z,5.23
2023-04-08T02:19:55.057Z,5.23
2023-04-08T02:20:27.386Z,5.23
2023-04-08T02:20:59.045Z,5.23
2023-04-08T02:21:31.126Z,5.23
2023-04-08T02:22:03.103Z,5.23
2023-04-08T02:22:35.098Z,5.18
2023-04-08T02:23:07.557Z,5.18
2023-04-08T02:23:35.104Z,5.18
2023-04-08T02:23:55.049Z,5.18
2023-04-08T02:24:27.054Z,5.18
2023-04-08T02:25:15.945Z,5.18
2023-04-08T02:25:36.663Z,5.18
2023-04-08T02:26:03.187Z,5.18
2023-04-08T02:26:36.011Z,5.18
2023-04-08T02:27:07.099Z,5.18
2023-04-08T02:27:34.712Z,5.18
2023-04-08T02:27:55.667Z,5.18
2023-04-08T02:28:27.038Z,5.18
2023-04-08T02:28:59.061Z,5.18
2023-04-08T02:29:31.118Z,5.07
2023-04-08T02:30:04.071Z,5.07
2023-04-08T02:30:35.158Z,5.07
2023-04-08T02:31:07.158Z,5.07
2023-04-08T02:31:34.941Z,5.07
2023-04-08T02:31:55.171Z,5.07
2023-04-08T02:32:27.091Z,5.07
2023-04-08T02:33:00.616Z,5.07
2023-04-08T02:33:31.177Z,5.07
2023-04-08T02:34:03.109Z,5.07
2023-04-08T02:34:35.082Z,5.07
2023-04-08T02:35:07.413Z,5.07
2023-04-08T02:35:34.708Z,5.07
2023-04-08T02:35:55.519Z,5.07
2023-04-08T02:36:27.047Z,5.07
2023-04-08T02:36:59.027Z,4.96
2023-04-08T02:37:31.175Z,4.96
2023-04-08T02:38:03.247Z,4.96
2023-04-08T02:38:35.538Z,4.96
2023-04-08T02:39:07.047Z,4.96
2023-04-08T02:39:34.826Z,4.96
2023-04-08T02:39:55.111Z,4.96
2023-04-08T02:40:27.664Z,4.96
2023-04-08T02:40:59.061Z,4.96
2023-04-08T02:41:31.177Z,4.96
2023-04-08T02:42:03.150Z,4.96
2023-04-08T02:42:36.097Z,4.96
2023-04-08T02:43:07.057Z,4.96
2023-04-08T02:43:34.690Z,5.11
2023-04-08T02:44:11.114Z,5.11
2023-04-08T02:44:34.684Z,4.96
2023-04-08T02:44:59.045Z,5.11
2023-04-08T02:45:31.725Z,5.11
2023-04-08T02:46:03.798Z,5.11
2023-04-08T02:46:35.469Z,5.11
2023-04-08T02:47:07.060Z,5.11
2023-04-08T02:47:34.758Z,5.11
2023-04-08T02:47:55.117Z,5.11
2023-04-08T02:48:27.119Z,5.11
2023-04-08T02:49:02.632Z,5.11
2023-04-08T02:49:31.235Z,5.11
2023-04-08T02:50:03.869Z,5.11
2023-04-08T02:50:35.175Z,5.11
2023-04-08T02:51:07.124Z,5.11
2023-04-08T02:51:34.687Z,5.11
2023-04-08T02:51:55.071Z,5.11
2023-04-08T02:52:27.054Z,5.11
2023-04-08T02:52:59.042Z,4.99
2023-04-08T02:53:31.352Z,4.99
2023-04-08T02:54:03.064Z,4.99
2023-04-08T02:54:35.079Z,4.99
2023-04-08T02:55:07.313Z,4.99
2023-04-08T02:55:34.693Z,4.88
2023-04-08T02:55:55.290Z,4.88
2023-04-08T02:56:27.099Z,4.88
2023-04-08T02:56:59.362Z,4.88
2023-04-08T02:57:31.201Z,4.88
2023-04-08T02:58:03.070Z,4.88
2023-04-08T02:58:35.830Z,4.88
2023-04-08T02:59:07.054Z,4.88
2023-04-08T02:59:34.686Z,4.88
2023-04-08T02:59:55.053Z,4.88
2023-04-08T03:00:27.693Z,4.83
2023-04-08T03:00:59.087Z,4.83
2023-04-08T03:01:31.516Z,4.83
2023-04-08T03:02:03.182Z,4.83
2023-04-08T03:02:35.193Z,4.83
2023-04-08T03:03:07.197Z,4.83
2023-04-08T03:03:34.747Z,4.83
2023-04-08T03:03:55.146Z,4.83
2023-04-08T03:04:27.069Z,4.83
2023-04-08T03:04:59.048Z,4.83
2023-04-08T03:05:31.749Z,4.83
2023-04-08T03:06:03.062Z,4.83
2023-04-08T03:06:35.048Z,4.83
2023-04-08T03:07:08.633Z,4.83
2023-04-08T03:07:34.650Z,4.83
2023-04-08T03:07:55.043Z,4.83
2023-04-08T03:08:27.068Z,4.83
2023-04-08T03:08:59.020Z,4.83
2023-04-08T03:09:31.746Z,4.88
2023-04-08T03:10:03.757Z,4.88
2023-04-08T03:10:35.048Z,4.88
2023-04-08T03:11:07.045Z,4.88
2023-04-08T03:11:34.647Z,4.88
2023-04-08T03:11:55.156Z,4.88
2023-04-08T03:12:27.243Z,4.88
2023-04-08T03:12:59.019Z,4.83
2023-04-08T03:13:31.315Z,4.83
2023-04-08T03:14:03.106Z,4.83
2023-04-08T03:14:40.728Z,4.83
2023-04-08T03:15:07.607Z,4.83
2023-04-08T03:15:34.660Z,4.83
2023-04-08T03:15:56.152Z,4.83
2023-04-08T03:16:27.092Z,4.83
2023-04-08T03:16:59.309Z,4.83
2023-04-08T03:17:31.274Z,4.83
2023-04-08T03:18:03.094Z,4.83
2023-04-08T03:18:35.092Z,4.83
2023-04-08T03:19:07.812Z,4.83
2023-04-08T03:19:34.708Z,4.83
2023-04-08T03:19:55.047Z,4.83
2023-04-08T03:20:27.366Z,4.83
2023-04-08T03:20:59.069Z,4.83
2023-04-08T03:21:31.303Z,4.83
2023-04-08T03:22:03.089Z,4.83
2023-04-08T03:22:35.073Z,4.83
2023-04-08T03:23:07.060Z,4.83
2023-04-08T03:23:34.678Z,4.83
2023-04-08T03:23:55.074Z,4.83
2023-04-08T03:24:27.049Z,4.83
2023-04-08T03:24:59.024Z,4.83
2023-04-08T03:25:32.148Z,4.83
2023-04-08T03:26:03.111Z,4.83
2023-04-08T03:26:35.034Z,4.83
2023-04-08T03:27:07.058Z,4.83
2023-04-08T03:27:34.640Z,4.83
2023-04-08T03:27:55.038Z,4.72
2023-04-08T03:28:27.066Z,4.72
2023-04-08T03:28:59.050Z,4.72
2023-04-08T03:29:31.237Z,4.88
2023-04-08T03:30:04.360Z,4.88
2023-04-08T03:30:35.154Z,4.88
2023-04-08T03:31:37.553Z,4.88
2023-04-08T03:31:55.906Z,4.88
2023-04-08T03:32:27.083Z,4.88
2023-04-08T03:32:59.077Z,4.88
2023-04-08T03:33:36.674Z,4.88
2023-04-08T03:34:03.054Z,4.88
2023-04-08T03:34:35.054Z,4.88
2023-04-08T03:35:08.285Z,4.88
2023-04-08T03:35:34.779Z,4.88
2023-04-08T03:35:55.335Z,4.88
2023-04-08T03:36:27.111Z,4.88
2023-04-08T03:36:59.086Z,4.88
2023-04-08T03:37:31.277Z,4.88
2023-04-08T03:38:03.085Z,4.88
2023-04-08T03:38:35.437Z,4.88
2023-04-08T03:39:07.087Z,4.88
2023-04-08T03:39:34.635Z,4.88
2023-04-08T03:39:55.023Z,4.88
2023-04-08T03:40:27.414Z,4.88
2023-04-08T03:41:05.374Z,4.88
2023-04-08T03:41:31.858Z,4.88
2023-04-08T03:42:03.110Z,4.88
2023-04-08T03:42:35.604Z,4.88
2023-04-08T03:43:07.056Z,4.88
2023-04-08T03:43:37.427Z,4.88
2023-04-08T03:43:55.105Z,4.88
2023-04-08T03:44:27.060Z,4.88
2023-04-08T03:44:59.043Z,4.88
2023-04-08T03:45:31.835Z,4.88
2023-04-08T03:46:03.622Z,4.88
2023-04-08T03:46:35.115Z,4.88
2023-04-08T03:47:07.062Z,4.88
2023-04-08T03:47:34.655Z,4.88
2023-04-08T03:47:55.880Z,4.77
2023-04-08T03:48:27.239Z,4.77
2023-04-08T03:48:59.316Z,4.77
2023-04-08T03:49:31.291Z,4.77
2023-04-08T03:50:03.734Z,4.77
2023-04-08T03:50:35.318Z,4.77
2023-04-08T03:51:07.738Z,4.77
2023-04-08T03:51:34.647Z,4.77
2023-04-08T03:51:55.056Z,4.77
2023-04-08T03:52:34.659Z,4.77
2023-04-08T03:52:59.050Z,4.77
2023-04-08T03:53:36.680Z,4.77
2023-04-08T03:54:03.103Z,4.77
2023-04-08T03:54:51.078Z,4.77
2023-04-08T03:55:23.415Z,4.77
2023-04-08T03:55:40.383Z,4.77
2023-04-08T03:56:11.143Z,4.77
2023-04-08T03:56:34.658Z,4.77
2023-04-08T03:56:59.074Z,4.77
2023-04-08T03:57:32.967Z,4.77
2023-04-08T03:58:03.085Z,4.65
2023-04-08T03:58:40.741Z,4.65
2023-04-08T03:59:07.038Z,4.65
2023-04-08T03:59:34.645Z,4.65
2023-04-08T04:00:12.227Z,4.65
2023-04-08T04:00:35.692Z,4.65
2023-04-08T04:01:36.697Z,4.65
2023-04-08T04:02:02.858Z,4.65
2023-04-08T04:02:40.399Z,4.65
2023-04-08T04:03:06.789Z,4.65
2023-04-08T04:03:34.237Z,4.65
2023-04-08T04:04:34.144Z,4.65
2023-04-08T04:05:15.046Z,4.65
2023-04-08T04:05:36.204Z,4.65
2023-04-08T04:06:35.101Z,4.65
2023-04-08T04:07:07.817Z,4.65
2023-04-08T04:07:34.723Z,4.65
2023-04-08T04:07:55.063Z,4.55
2023-04-08T04:08:27.025Z,4.55
2023-04-08T04:08:59.174Z,4.55
2023-04-08T04:09:31.148Z,4.55
2023-04-08T04:10:03.624Z,4.55
2023-04-08T04:10:35.041Z,4.55
2023-04-08T04:11:07.064Z,4.55
2023-04-08T04:11:34.672Z,4.55
2023-04-08T04:11:55.171Z,4.55
2023-04-08T04:12:27.056Z,4.55
2023-04-08T04:13:32.851Z,4.55
2023-04-08T04:14:40.207Z,4.55
2023-04-08T04:15:07.619Z,4.55
2023-04-08T04:15:34.751Z,4.55
2023-04-08T04:15:55.407Z,4.55
2023-04-08T04:16:27.093Z,4.55
2023-04-08T04:16:59.217Z,4.55
2023-04-08T04:17:31.203Z,4.55
2023-04-08T04:18:03.098Z,4.55
2023-04-08T04:18:35.128Z,4.55
2023-04-08T04:19:07.068Z,4.55
2023-04-08T04:19:34.686Z,4.55
2023-04-08T04:19:55.851Z,4.55
2023-04-08T04:20:27.328Z,4.55
2023-04-08T04:20:59.212Z,4.55
2023-04-08T04:21:31.120Z,4.55
2023-04-08T04:22:03.085Z,4.55
2023-04-08T04:22:35.065Z,4.55
2023-04-08T04:23:08.055Z,4.55
2023-04-08T04:23:34.711Z,4.55
2023-04-08T04:23:55.140Z,4.55
2023-04-08T04:24:30.010Z,4.55
2023-04-08T04:24:59.230Z,4.55
2023-04-08T04:25:31.471Z,4.55
2023-04-08T04:26:03.082Z,4.55
2023-04-08T04:26:35.158Z,4.55
2023-04-08T04:27:07.135Z,4.50
2023-04-08T04:27:34.751Z,4.50
2023-04-08T04:27:55.045Z,4.50
2023-04-08T04:28:27.056Z,4.50
2023-04-08T04:28:59.208Z,4.50
2023-04-08T04:29:31.843Z,4.50
2023-04-08T04:30:03.923Z,4.50
2023-04-08T04:30:35.382Z,4.50
2023-04-08T04:31:07.087Z,4.50
2023-04-08T04:31:35.132Z,4.50
2023-04-08T04:31:55.068Z,4.50
2023-04-08T04:32:27.166Z,4.50
2023-04-08T04:32:59.261Z,4.50
2023-04-08T04:33:31.232Z,4.50
2023-04-08T04:34:03.044Z,4.50
2023-04-08T04:34:44.806Z,4.50
2023-04-08T04:35:07.466Z,4.50
2023-04-08T04:35:34.763Z,4.50
2023-04-08T04:35:56.125Z,4.50
2023-04-08T04:36:27.035Z,4.50
2023-04-08T04:36:59.290Z,4.50
2023-04-08T04:37:38.726Z,4.50
2023-04-08T04:38:03.040Z,4.50
2023-04-08T04:38:35.067Z,4.50
2023-04-08T04:39:07.870Z,4.39
2023-04-08T04:39:34.697Z,4.39
2023-04-08T04:39:55.089Z,4.39
2023-04-08T04:40:27.373Z,4.39
2023-04-08T04:41:15.084Z,4.39
2023-04-08T04:41:36.674Z,4.39
2023-04-08T04:42:03.123Z,4.39
2023-04-08T04:42:35.048Z,4.39
2023-04-08T04:43:07.291Z,4.39
2023-04-08T04:43:34.690Z,4.39
2023-04-08T04:43:55.083Z,4.39
2023-04-08T04:44:27.051Z,4.39
2023-04-08T04:44:59.258Z,4.28
2023-04-08T04:45:32.504Z,4.28
2023-04-08T04:46:03.262Z,4.28
2023-04-08T04:46:35.098Z,4.16
2023-04-08T04:47:07.098Z,4.31
2023-04-08T04:47:34.738Z,4.31
2023-04-08T04:47:55.098Z,4.31
2023-04-08T04:48:27.067Z,4.31
2023-04-08T04:48:59.207Z,4.31
2023-04-08T04:49:31.146Z,4.43
2023-04-08T04:50:03.490Z,4.43
2023-04-08T04:50:35.780Z,4.43
2023-04-08T04:51:07.481Z,4.43
2023-04-08T04:51:34.689Z,4.43
2023-04-08T04:51:55.860Z,4.43
2023-04-08T04:52:27.063Z,4.43
2023-04-08T04:52:59.313Z,4.31
2023-04-08T04:53:31.291Z,4.31
2023-04-08T04:54:03.133Z,4.31
2023-04-08T04:54:35.169Z,4.31
2023-04-08T04:55:08.210Z,4.31
2023-04-08T04:55:37.517Z,4.31
2023-04-08T04:55:55.289Z,4.31
2023-04-08T04:56:27.181Z,4.31
2023-04-08T04:56:59.419Z,4.31
2023-04-08T04:57:31.213Z,4.31
2023-04-08T04:58:03.196Z,4.31
2023-04-08T04:58:35.266Z,4.31
2023-04-08T04:59:07.179Z,4.31
2023-04-08T04:59:35.244Z,4.31
2023-04-08T04:59:55.191Z,4.31
2023-04-08T05:00:27.724Z,4.31
2023-04-08T05:00:59.486Z,4.31
2023-04-08T05:01:32.080Z,4.31
2023-04-08T05:02:03.219Z,4.31
2023-04-08T05:02:35.367Z,4.31
2023-04-08T05:03:07.516Z,4.31
2023-04-08T05:03:34.924Z,4.31
2023-04-08T05:03:55.150Z,4.31
2023-04-08T05:04:27.188Z,4.31
2023-04-08T05:04:59.477Z,4.31
2023-04-08T05:05:31.556Z,4.31
2023-04-08T05:06:03.163Z,4.31
2023-04-08T05:06:35.215Z,4.31
2023-04-08T05:07:07.193Z,4.31
2023-04-08T05:07:34.810Z,4.31
2023-04-08T05:07:55.983Z,4.31
2023-04-08T05:08:27.940Z,4.31
2023-04-08T05:08:59.428Z,4.31
2023-04-08T05:09:31.160Z,4.31
2023-04-08T05:10:03.536Z,4.31
2023-04-08T05:10:35.163Z,4.31
2023-04-08T05:11:07.920Z,4.31
2023-04-08T05:11:34.853Z,4.31
2023-04-08T05:11:55.269Z,4.31
2023-04-08T05:12:27.182Z,4.31
2023-04-08T05:12:59.482Z,4.31
2023-04-08T05:13:31.410Z,4.31
2023-04-08T05:14:03.157Z,4.31
2023-04-08T05:14:45.235Z,4.31
2023-04-08T05:15:07.821Z,4.31
2023-04-08T05:15:34.868Z,4.20
2023-04-08T05:15:55.421Z,4.20
2023-04-08T05:16:27.263Z,4.20
2023-04-08T05:16:59.508Z,4.15
2023-04-08T05:17:32.862Z,4.15
2023-04-08T05:18:03.302Z,4.15
2023-04-08T05:18:35.228Z,4.15
2023-04-08T05:19:07.178Z,4.15
2023-04-08T05:19:34.843Z,4.15
2023-04-08T05:19:55.169Z,4.15
2023-04-08T05:20:27.489Z,4.15
2023-04-08T05:20:59.881Z,4.15
2023-04-08T05:21:31.375Z,4.15
2023-04-08T05:22:03.225Z,4.15
2023-04-08T05:22:35.513Z,4.15
2023-04-08T05:23:07.139Z,4.15
2023-04-08T05:23:34.831Z,4.15
2023-04-08T05:23:57.863Z,4.15
2023-04-08T05:24:27.139Z,4.04
2023-04-08T05:24:59.537Z,4.04
2023-04-08T05:25:32.030Z,4.04
2023-04-08T05:26:03.179Z,4.04
2023-04-08T05:26:35.171Z,4.04
2023-04-08T05:27:10.246Z,4.04
2023-04-08T05:27:35.041Z,4.04
2023-04-08T05:27:55.239Z,4.04
2023-04-08T05:28:27.194Z,4.04
2023-04-08T05:28:59.480Z,4.04
2023-04-08T05:29:31.231Z,4.04
2023-04-08T05:30:03.911Z,4.15
2023-04-08T05:30:36.100Z,4.04
2023-04-08T05:31:07.242Z,4.04
2023-04-08T05:31:34.873Z,4.04
2023-04-08T05:31:55.394Z,4.04
2023-04-08T05:32:27.191Z,4.04
2023-04-08T05:33:00.751Z,4.04
2023-04-08T05:33:32.064Z,4.04
2023-04-08T05:34:03.137Z,4.04
2023-04-08T05:34:35.186Z,4.04
2023-04-08T05:35:07.535Z,4.04
2023-04-08T05:35:34.905Z,4.04
2023-04-08T05:35:55.488Z,4.04
2023-04-08T05:36:27.170Z,4.04
2023-04-08T05:36:59.612Z,4.04
2023-04-08T05:37:31.258Z,4.15
2023-04-08T05:38:03.203Z,4.15
2023-04-08T05:38:35.243Z,4.15
2023-04-08T05:39:07.226Z,4.15
2023-04-08T05:39:35.248Z,4.15
2023-04-08T05:39:57.863Z,4.04
2023-04-08T05:40:27.457Z,4.04
2023-04-08T05:40:59.573Z,4.04
2023-04-08T05:41:31.196Z,4.04
2023-04-08T05:42:03.172Z,4.04
2023-04-08T05:42:35.248Z,4.04
2023-04-08T05:43:09.994Z,4.04
2023-04-08T05:43:34.855Z,4.04
2023-04-08T05:43:55.299Z,3.93
2023-04-08T05:44:27.160Z,3.93
2023-04-08T05:44:59.607Z,3.93
2023-04-08T05:45:31.761Z,3.93
2023-04-08T05:46:03.391Z,3.81
2023-04-08T05:46:35.401Z,3.81
2023-04-08T05:47:07.358Z,3.81
2023-04-08T05:47:34.986Z,3.81
2023-04-08T05:47:55.267Z,3.81
2023-04-08T05:48:27.180Z,3.81
2023-04-08T05:48:59.630Z,3.81
2023-04-08T05:49:33.787Z,3.81
2023-04-08T05:50:03.633Z,3.81
2023-04-08T05:50:35.615Z,3.70
2023-04-08T05:51:07.236Z,3.70
2023-04-08T05:51:34.880Z,3.70
2023-04-08T05:51:55.228Z,3.70
2023-04-08T05:52:27.229Z,3.81
2023-04-08T05:52:59.628Z,3.81
2023-04-08T05:53:31.239Z,3.81
2023-04-08T05:54:03.324Z,3.81
2023-04-08T05:54:35.633Z,3.81
2023-04-08T05:55:35.712Z,3.81
2023-04-08T05:56:35.765Z,3.81
2023-04-08T05:56:59.750Z,3.70
2023-04-08T05:57:36.749Z,3.70
2023-04-08T05:58:19.200Z,3.81
2023-04-08T05:58:40.836Z,3.81
2023-04-08T05:59:34.822Z,3.81
2023-04-08T06:00:12.251Z,3.70
2023-04-08T06:00:34.849Z,3.65
2023-04-08T06:01:00.131Z,3.65
2023-04-08T06:01:31.248Z,3.65
2023-04-08T06:02:03.389Z,3.65
2023-04-08T06:02:35.382Z,3.65
2023-04-08T06:03:08.275Z,3.65
2023-04-08T06:03:36.202Z,3.65
2023-04-08T06:03:56.305Z,3.70
2023-04-08T06:04:27.216Z,3.70
2023-04-08T06:04:59.779Z,3.70
2023-04-08T06:05:31.456Z,3.81
2023-04-08T06:06:03.175Z,3.81
2023-04-08T06:06:39.770Z,3.81
2023-04-08T06:07:07.768Z,3.93
2023-04-08T06:07:35.586Z,3.93
2023-04-08T06:07:55.174Z,3.93
2023-04-08T06:08:27.176Z,3.93
2023-04-08T06:08:59.553Z,3.93
2023-04-08T06:09:35.268Z,3.81
2023-04-08T06:10:05.408Z,3.81
2023-04-08T06:10:35.240Z,3.70
2023-04-08T06:11:07.199Z,3.70
2023-04-08T06:11:35.654Z,3.70
2023-04-08T06:11:55.211Z,3.65
2023-04-08T06:12:27.416Z,3.65
2023-04-08T06:13:00.055Z,3.65
2023-04-08T06:13:31.185Z,3.70
2023-04-08T06:14:03.519Z,3.70
2023-04-08T06:14:40.524Z,3.81
2023-04-08T06:15:08.733Z,3.81
2023-04-08T06:15:37.089Z,3.93
2023-04-08T06:15:55.452Z,3.93
2023-04-08T06:16:27.919Z,3.93
2023-04-08T06:16:59.727Z,3.93
2023-04-08T06:17:31.367Z,3.93
2023-04-08T06:18:03.272Z,3.93
2023-04-08T06:18:37.992Z,3.93
2023-04-08T06:19:07.194Z,3.93
2023-04-08T06:19:35.129Z,3.93
2023-04-08T06:19:55.180Z,3.93
2023-04-08T06:20:27.500Z,3.93
2023-04-08T06:20:59.721Z,3.93
2023-04-08T06:21:32.214Z,3.93
2023-04-08T06:22:03.177Z,3.93
2023-04-08T06:22:36.024Z,4.04
2023-04-08T06:23:07.198Z,3.89
2023-04-08T06:23:34.878Z,3.89
2023-04-08T06:23:55.372Z,3.78
2023-04-08T06:24:27.176Z,3.78
2023-04-08T06:24:59.625Z,3.78
2023-04-08T06:25:32.771Z,3.78
2023-04-08T06:26:04.243Z,3.78
2023-04-08T06:26:35.722Z,3.78
2023-04-08T06:27:07.207Z,3.78
2023-04-08T06:27:34.842Z,3.78
2023-04-08T06:27:55.160Z,3.89
2023-04-08T06:28:34.811Z,3.89
2023-04-08T06:28:59.988Z,3.89
2023-04-08T06:29:36.732Z,3.89
2023-04-08T06:30:35.985Z,3.89
2023-04-08T06:31:07.223Z,4.00
2023-04-08T06:31:34.876Z,4.05
2023-04-08T06:31:55.188Z,4.05
2023-04-08T06:32:27.668Z,4.05
2023-04-08T06:32:59.719Z,4.05
2023-04-08T06:33:31.214Z,4.05
2023-04-08T06:34:03.177Z,4.05
2023-04-08T06:34:35.779Z,4.05
2023-04-08T06:35:07.465Z,4.00
2023-04-08T06:35:34.894Z,4.00
2023-04-08T06:35:55.560Z,4.00
2023-04-08T06:36:27.182Z,4.00
2023-04-08T06:36:59.598Z,4.00
2023-04-08T06:37:31.209Z,4.00
2023-04-08T06:38:03.228Z,4.00
2023-04-08T06:38:36.473Z,4.00
2023-04-08T06:39:07.210Z,4.00
2023-04-08T06:39:34.862Z,4.05
2023-04-08T06:39:55.137Z,4.05
2023-04-08T06:40:27.572Z,4.05
2023-04-08T06:41:15.220Z,4.05
2023-04-08T06:41:39.558Z,4.05
2023-04-08T06:42:03.167Z,4.05
2023-04-08T06:42:35.211Z,4.05
2023-04-08T06:43:07.228Z,4.00
2023-04-08T06:43:34.911Z,4.00
2023-04-08T06:43:55.125Z,3.89
2023-04-08T06:44:27.150Z,3.89
2023-04-08T06:44:59.625Z,3.89
2023-04-08T06:45:31.767Z,3.89
2023-04-08T06:46:03.408Z,3.89
2023-04-08T06:46:35.134Z,3.89
2023-04-08T06:47:07.175Z,4.00
2023-04-08T06:47:34.895Z,4.00
2023-04-08T06:47:55.938Z,4.00
2023-04-08T06:48:27.150Z,4.00
2023-04-08T06:48:59.622Z,4.16
2023-04-08T06:49:31.280Z,4.00
2023-04-08T06:50:03.581Z,4.00
2023-04-08T06:50:35.233Z,4.00
2023-04-08T06:51:08.093Z,4.00
2023-04-08T06:51:34.886Z,4.00
2023-04-08T06:51:55.185Z,3.89
2023-04-08T06:52:27.200Z,3.89
2023-04-08T06:52:59.620Z,3.89
2023-04-08T06:53:31.174Z,3.89
2023-04-08T06:54:03.131Z,3.89
2023-04-08T06:54:35.764Z,4.00
2023-04-08T06:55:07.481Z,4.00
2023-04-08T06:55:34.848Z,4.00
2023-04-08T06:55:55.416Z,4.00
2023-04-08T06:56:33.252Z,4.00
2023-04-08T06:56:59.772Z,4.00
2023-04-08T06:57:31.971Z,4.12
2023-04-08T06:58:03.218Z,4.23
2023-04-08T06:58:35.271Z,4.23
2023-04-08T06:59:07.372Z,4.23
2023-04-08T06:59:34.861Z,4.33
2023-04-08T06:59:55.144Z,4.33
2023-04-08T07:00:27.927Z,4.33
2023-04-08T07:01:00.604Z,4.33
2023-04-08T07:01:31.496Z,4.23
2023-04-08T07:02:03.548Z,4.33
2023-04-08T07:02:35.388Z,4.18
2023-04-08T07:03:07.474Z,4.18
2023-04-08T07:03:35.058Z,4.18
2023-04-08T07:03:55.378Z,4.18
2023-04-08T07:04:27.306Z,4.23
2023-04-08T07:04:59.863Z,4.34
2023-04-08T07:05:31.638Z,4.34
2023-04-08T07:06:03.310Z,4.34
2023-04-08T07:06:36.145Z,4.34